createdAt,value
2017-10-16T00:00:53.240Z,23.1
2017-10-16T00:02:01.326Z,23.1
2017-10-16T00:03:09.416Z,23.1
2017-10-16T00:04:17.502Z,23.1
2017-10-16T00:05:25.590Z,23.1
2017-10-16T00:06:33.677Z,23.1
2017-10-16T00:07:41.767Z,23.1
2017-10-16T00:08:49.856Z,23.1
2017-10-16T00:09:57.942Z,23.1
2017-10-16T00:11:06.033Z,23.0
2017-10-16T00:12:14.119Z,23.1
2017-10-16T00:13:22.205Z,23.1
2017-10-16T00:14:30.299Z,23.1
2017-10-16T00:15:38.408Z,23.1
2017-10-16T00:16:46.478Z,23.0
2017-10-16T00:17:54.563Z,23.1
2017-10-16T00:19:02.653Z,23.1
2017-10-16T00:20:10.740Z,23.0
2017-10-16T00:21:18.845Z,23.1
2017-10-16T00:22:26.925Z,23.0
2017-10-16T00:23:35.014Z,22.9
2017-10-16T00:24:43.103Z,23.0
2017-10-16T00:25:51.190Z,22.9
2017-10-16T00:26:59.279Z,22.9
2017-10-16T00:28:07.362Z,23.0
2017-10-16T00:29:15.451Z,23.0
2017-10-16T00:30:23.541Z,22.9
2017-10-16T00:31:31.631Z,22.9
2017-10-16T00:32:39.713Z,22.8
2017-10-16T00:33:47.803Z,22.9
2017-10-16T00:34:55.890Z,22.9
2017-10-16T00:36:03.978Z,23.0
2017-10-16T00:37:12.070Z,22.9
2017-10-16T00:38:20.152Z,23.0
2017-10-16T00:39:28.250Z,22.9
2017-10-16T00:40:36.338Z,23.0
2017-10-16T00:41:44.427Z,22.9
2017-10-16T00:42:52.516Z,22.9
2017-10-16T00:44:00.601Z,22.9
2017-10-16T00:45:08.881Z,22.9
2017-10-16T00:46:16.967Z,22.9
2017-10-16T00:47:25.056Z,22.8
2017-10-16T00:48:33.146Z,22.9
2017-10-16T00:49:41.231Z,22.8
2017-10-16T00:50:49.319Z,22.8
2017-10-16T00:51:57.406Z,22.9
2017-10-16T00:53:05.504Z,22.9
2017-10-16T00:54:13.593Z,22.8
2017-10-16T00:55:21.679Z,22.9
2017-10-16T00:56:29.767Z,22.8
2017-10-16T00:57:37.855Z,22.8
2017-10-16T00:58:45.940Z,22.8
2017-10-16T00:59:54.030Z,22.8
2017-10-16T01:01:02.120Z,22.8
2017-10-16T01:02:10.203Z,22.8
2017-10-16T01:03:18.290Z,22.7
2017-10-16T01:04:26.377Z,22.8
2017-10-16T01:05:34.466Z,22.8
2017-10-16T01:06:42.554Z,22.8
2017-10-16T01:07:50.641Z,22.8
2017-10-16T01:08:58.729Z,22.8
2017-10-16T01:10:06.814Z,22.8
2017-10-16T01:11:14.908Z,22.8
2017-10-16T01:12:22.991Z,22.8
2017-10-16T01:13:31.079Z,22.8
2017-10-16T01:14:39.166Z,22.8
2017-10-16T01:15:47.273Z,22.8
2017-10-16T01:16:55.360Z,22.7
2017-10-16T01:18:03.587Z,22.7
2017-10-16T01:19:11.537Z,22.7
2017-10-16T01:20:19.623Z,22.8
2017-10-16T01:21:27.710Z,22.7
2017-10-16T01:22:35.797Z,22.7
2017-10-16T01:23:43.886Z,22.6
2017-10-16T01:24:51.974Z,22.7
2017-10-16T01:26:00.066Z,22.6
2017-10-16T01:27:08.147Z,22.6
2017-10-16T01:28:16.235Z,22.6
2017-10-16T01:29:24.325Z,22.6
2017-10-16T01:30:32.409Z,22.6
2017-10-16T01:31:40.514Z,22.6
2017-10-16T01:32:48.583Z,22.6
2017-10-16T01:33:56.673Z,22.6
2017-10-16T01:35:04.758Z,22.6
2017-10-16T01:36:12.851Z,22.6
2017-10-16T01:37:20.946Z,22.6
2017-10-16T01:38:29.029Z,22.6
2017-10-16T01:39:37.115Z,22.7
2017-10-16T01:40:45.200Z,22.6
2017-10-16T01:41:53.287Z,22.6
2017-10-16T01:43:01.375Z,22.6
2017-10-16T01:44:09.461Z,22.5
2017-10-16T01:45:17.549Z,22.6
2017-10-16T01:46:25.636Z,22.6
2017-10-16T01:47:33.723Z,22.5
2017-10-16T01:48:41.812Z,22.5
2017-10-16T01:49:49.899Z,22.5
2017-10-16T01:50:57.985Z,22.6
2017-10-16T01:52:06.077Z,22.5
2017-10-16T01:53:14.189Z,22.5
2017-10-16T01:54:22.276Z,22.5
2017-10-16T01:55:30.368Z,22.4
2017-10-16T01:56:38.453Z,22.5
2017-10-16T01:57:46.543Z,22.4
2017-10-16T01:58:54.630Z,22.5
2017-10-16T02:00:02.719Z,22.4
2017-10-16T02:01:10.801Z,22.4
2017-10-16T02:02:18.891Z,22.4
2017-10-16T02:03:26.976Z,22.4
2017-10-16T02:04:35.066Z,22.4
2017-10-16T02:05:43.149Z,22.4
2017-10-16T02:06:51.235Z,22.4
2017-10-16T02:07:59.325Z,22.4
2017-10-16T02:09:07.410Z,22.4
2017-10-16T02:10:15.495Z,22.4
2017-10-16T02:11:23.584Z,22.4
2017-10-16T02:12:31.671Z,22.3
2017-10-16T02:13:39.834Z,22.3
2017-10-16T02:14:47.845Z,22.3
2017-10-16T02:15:55.943Z,22.3
2017-10-16T02:17:04.018Z,22.3
2017-10-16T02:18:12.105Z,22.3
2017-10-16T02:19:20.202Z,22.3
2017-10-16T02:20:28.279Z,22.3
2017-10-16T02:21:36.368Z,22.3
2017-10-16T02:22:44.453Z,22.2
2017-10-16T02:23:52.542Z,22.3
2017-10-16T02:25:00.626Z,22.3
2017-10-16T02:26:08.712Z,22.2
2017-10-16T02:27:16.798Z,22.3
2017-10-16T02:28:24.887Z,22.2
2017-10-16T02:29:32.974Z,22.2
2017-10-16T02:30:41.062Z,22.1
2017-10-16T02:31:49.155Z,22.3
2017-10-16T02:32:57.262Z,22.3
2017-10-16T02:34:05.329Z,22.2
2017-10-16T02:35:13.417Z,22.2
2017-10-16T02:36:21.505Z,22.2
2017-10-16T02:37:29.588Z,22.2
2017-10-16T02:38:37.678Z,22.1
2017-10-16T02:39:45.763Z,22.2
2017-10-16T02:40:53.856Z,22.2
2017-10-16T02:42:01.938Z,22.2
2017-10-16T02:43:10.027Z,22.2
2017-10-16T02:44:18.115Z,22.2
2017-10-16T02:45:26.205Z,22.1
2017-10-16T02:46:34.290Z,22.1
2017-10-16T02:47:42.377Z,22.1
2017-10-16T02:48:50.462Z,22.1
2017-10-16T02:49:58.550Z,22.1
2017-10-16T02:51:06.645Z,22.1
2017-10-16T02:52:14.723Z,22.1
2017-10-16T02:53:22.814Z,22.0
2017-10-16T02:54:30.907Z,22.0
2017-10-16T02:55:39.006Z,22.1
2017-10-16T02:56:47.100Z,22.1
2017-10-16T02:57:55.188Z,22.0
2017-10-16T02:59:03.292Z,22.0
2017-10-16T03:00:11.370Z,22.0
2017-10-16T03:01:19.459Z,22.0
2017-10-16T03:02:27.547Z,22.1
2017-10-16T03:03:35.626Z,22.0
2017-10-16T03:04:43.735Z,21.9
2017-10-16T03:05:51.808Z,22.0
2017-10-16T03:06:59.895Z,22.1
2017-10-16T03:08:07.983Z,21.9
2017-10-16T03:09:16.073Z,22.0
2017-10-16T03:10:24.158Z,21.9
2017-10-16T03:11:32.243Z,22.0
2017-10-16T03:12:40.332Z,22.0
2017-10-16T03:13:48.417Z,22.0
2017-10-16T03:14:56.513Z,21.9
2017-10-16T03:16:04.592Z,21.9
2017-10-16T03:17:12.680Z,21.9
2017-10-16T03:18:20.767Z,21.9
2017-10-16T03:19:28.852Z,21.8
2017-10-16T03:20:36.945Z,21.9
2017-10-16T03:21:45.026Z,21.9
2017-10-16T03:22:53.112Z,21.9
2017-10-16T03:24:01.202Z,21.8
2017-10-16T03:25:09.289Z,21.8
2017-10-16T03:26:17.384Z,21.9
2017-10-16T03:27:25.463Z,21.8
2017-10-16T03:28:33.550Z,21.8
2017-10-16T03:29:41.637Z,21.8
2017-10-16T03:30:49.744Z,21.8
2017-10-16T03:31:57.834Z,21.7
2017-10-16T03:33:05.918Z,21.8
2017-10-16T03:34:14.002Z,21.8
2017-10-16T03:35:22.088Z,21.8
2017-10-16T03:36:30.176Z,21.8
2017-10-16T03:37:38.259Z,21.7
2017-10-16T03:38:46.346Z,21.8
2017-10-16T03:39:54.456Z,21.8
2017-10-16T03:41:02.623Z,21.7
2017-10-16T03:42:10.629Z,21.8
2017-10-16T03:43:18.716Z,21.8
2017-10-16T03:44:26.803Z,21.7
2017-10-16T03:45:34.891Z,21.6
2017-10-16T03:46:42.985Z,21.7
2017-10-16T03:47:51.063Z,21.7
2017-10-16T03:48:59.157Z,21.7
2017-10-16T03:50:07.237Z,21.6
2017-10-16T03:51:15.323Z,21.6
2017-10-16T03:52:23.409Z,21.7
2017-10-16T03:53:31.498Z,21.7
2017-10-16T03:54:39.591Z,21.7
2017-10-16T03:55:47.677Z,21.7
2017-10-16T03:56:55.768Z,21.5
2017-10-16T03:58:03.855Z,21.6
2017-10-16T03:59:11.938Z,21.6
2017-10-16T04:00:20.027Z,21.7
2017-10-16T04:01:28.112Z,21.7
2017-10-16T04:02:36.205Z,21.6
2017-10-16T04:03:44.285Z,21.6
2017-10-16T04:04:52.376Z,21.7
2017-10-16T04:06:00.460Z,21.7
2017-10-16T04:07:10.549Z,21.6
2017-10-16T04:08:16.632Z,21.6
2017-10-16T04:09:24.718Z,21.6
2017-10-16T04:10:32.815Z,21.7
2017-10-16T04:11:40.901Z,21.6
2017-10-16T04:12:49.010Z,21.6
2017-10-16T04:13:57.076Z,21.6
2017-10-16T04:15:05.163Z,21.7
2017-10-16T04:16:13.248Z,21.6
2017-10-16T04:17:21.347Z,21.5
2017-10-16T04:18:29.432Z,21.6
2017-10-16T04:19:37.753Z,21.5
2017-10-16T04:20:45.609Z,21.5
2017-10-16T04:21:53.693Z,21.5
2017-10-16T04:23:01.779Z,21.5
2017-10-16T04:24:09.868Z,21.6
2017-10-16T04:25:17.953Z,21.5
2017-10-16T04:26:26.039Z,21.5
2017-10-16T04:27:34.124Z,21.5
2017-10-16T04:28:42.214Z,21.5
2017-10-16T04:29:50.301Z,21.4
2017-10-16T04:30:58.392Z,21.4
2017-10-16T04:32:06.471Z,21.5
2017-10-16T04:33:15.030Z,21.4
2017-10-16T04:34:22.646Z,21.4
2017-10-16T04:35:31.114Z,21.4
2017-10-16T04:36:38.823Z,21.4
2017-10-16T04:37:46.905Z,21.4
2017-10-16T04:38:54.990Z,21.4
2017-10-16T04:40:03.635Z,21.4
2017-10-16T04:41:11.165Z,21.4
2017-10-16T04:42:19.259Z,21.4
2017-10-16T04:43:27.998Z,21.4
2017-10-16T04:44:35.424Z,21.4
2017-10-16T04:45:43.513Z,21.4
2017-10-16T04:46:51.596Z,21.4
2017-10-16T04:47:59.685Z,21.3
2017-10-16T04:49:07.771Z,21.4
2017-10-16T04:50:15.862Z,21.3
2017-10-16T04:51:24.012Z,21.3
2017-10-16T04:52:32.100Z,21.3
2017-10-16T04:53:40.424Z,21.4
2017-10-16T04:54:48.272Z,21.3
2017-10-16T04:55:56.363Z,21.3
2017-10-16T04:57:04.444Z,21.3
2017-10-16T04:58:12.537Z,21.3
2017-10-16T04:59:20.625Z,21.3
2017-10-16T05:00:28.712Z,21.3
2017-10-16T05:01:36.801Z,21.2
2017-10-16T05:02:44.886Z,21.3
2017-10-16T05:03:53.363Z,21.3
2017-10-16T05:05:01.467Z,21.3
2017-10-16T05:06:09.566Z,21.2
2017-10-16T05:07:17.651Z,21.2
2017-10-16T05:08:25.737Z,21.2
2017-10-16T05:09:33.825Z,21.1
2017-10-16T05:10:41.907Z,21.1
2017-10-16T05:11:49.997Z,21.1
2017-10-16T05:12:58.086Z,21.1
2017-10-16T05:14:06.172Z,21.2
2017-10-16T05:15:14.263Z,21.1
2017-10-16T05:16:22.351Z,21.3
2017-10-16T05:17:30.436Z,21.2
2017-10-16T05:18:38.521Z,21.0
2017-10-16T05:19:46.608Z,21.2
2017-10-16T05:20:54.704Z,21.1
2017-10-16T05:22:02.833Z,21.0
2017-10-16T05:23:10.886Z,21.1
2017-10-16T05:24:18.962Z,21.1
2017-10-16T05:25:27.048Z,21.1
2017-10-16T05:26:35.135Z,21.1
2017-10-16T05:27:43.221Z,21.0
2017-10-16T05:28:51.307Z,21.1
2017-10-16T05:29:59.394Z,21.0
2017-10-16T05:31:07.482Z,21.1
2017-10-16T05:32:15.565Z,21.1
2017-10-16T05:33:23.652Z,21.1
2017-10-16T05:34:31.736Z,21.0
2017-10-16T05:35:39.825Z,21.1
2017-10-16T05:36:47.911Z,21.0
2017-10-16T05:37:55.997Z,20.9
2017-10-16T05:39:04.082Z,21.0
2017-10-16T05:40:12.195Z,21.0
2017-10-16T05:41:20.280Z,21.1
2017-10-16T05:42:28.366Z,21.0
2017-10-16T05:43:36.503Z,21.0
2017-10-16T05:44:44.545Z,20.9
2017-10-16T05:45:52.627Z,20.9
2017-10-16T05:47:00.714Z,21.0
2017-10-16T05:48:08.816Z,20.9
2017-10-16T05:49:16.885Z,21.0
2017-10-16T05:50:24.970Z,21.0
2017-10-16T05:51:33.057Z,20.9
2017-10-16T05:52:41.143Z,20.9
2017-10-16T05:53:49.231Z,20.9
2017-10-16T05:54:57.323Z,21.0
2017-10-16T05:56:05.402Z,20.9
2017-10-16T05:57:13.536Z,20.9
2017-10-16T05:58:21.623Z,20.9
2017-10-16T05:59:29.707Z,20.9
2017-10-16T06:00:37.793Z,20.9
2017-10-16T06:01:45.880Z,20.9
2017-10-16T06:02:53.965Z,20.9
2017-10-16T06:04:02.054Z,20.9
2017-10-16T06:05:10.137Z,20.8
2017-10-16T06:06:18.224Z,20.9
2017-10-16T06:07:26.322Z,20.9
2017-10-16T06:08:34.395Z,20.8
2017-10-16T06:09:42.483Z,20.8
2017-10-16T06:10:50.568Z,20.8
2017-10-16T06:11:58.656Z,20.8
2017-10-16T06:13:06.743Z,20.8
2017-10-16T06:14:14.827Z,20.8
2017-10-16T06:15:23.237Z,20.9
2017-10-16T06:16:31.004Z,20.8
2017-10-16T06:17:39.087Z,20.8
2017-10-16T06:18:47.172Z,20.8
2017-10-16T06:19:55.260Z,20.8
2017-10-16T06:21:03.348Z,20.9
2017-10-16T06:22:11.429Z,20.7
2017-10-16T06:23:19.518Z,20.8
2017-10-16T06:24:27.610Z,20.8
2017-10-16T06:25:35.689Z,20.8
2017-10-16T06:26:43.773Z,20.8
2017-10-16T06:27:51.860Z,20.7
2017-10-16T06:28:59.947Z,20.7
2017-10-16T06:30:08.033Z,20.7
2017-10-16T06:31:16.119Z,20.7
2017-10-16T06:32:24.206Z,20.7
2017-10-16T06:33:32.293Z,20.7
2017-10-16T06:34:40.385Z,20.7
2017-10-16T06:35:48.463Z,20.7
2017-10-16T06:36:56.548Z,20.7
2017-10-16T06:38:04.638Z,20.7
2017-10-16T06:39:12.722Z,20.7
2017-10-16T06:40:20.808Z,20.7
2017-10-16T06:41:28.895Z,20.7
2017-10-16T06:42:36.983Z,20.7
2017-10-16T06:43:45.068Z,20.6
2017-10-16T06:44:53.154Z,20.7
2017-10-16T06:46:01.241Z,20.7
2017-10-16T06:47:09.324Z,20.7
2017-10-16T06:48:17.412Z,20.7
2017-10-16T06:49:25.499Z,20.7
2017-10-16T06:50:33.585Z,20.6
2017-10-16T06:51:41.673Z,20.6
2017-10-16T06:52:49.759Z,20.7
2017-10-16T06:53:57.865Z,20.6
2017-10-16T06:55:05.930Z,20.6
2017-10-16T06:56:14.013Z,20.6
2017-10-16T06:57:22.100Z,20.6
2017-10-16T06:58:30.189Z,20.6
2017-10-16T06:59:38.275Z,20.6
2017-10-16T07:00:46.362Z,20.5
2017-10-16T07:01:54.465Z,20.6
2017-10-16T07:03:02.538Z,20.6
2017-10-16T07:04:10.620Z,20.5
2017-10-16T07:05:18.702Z,20.6
2017-10-16T07:06:26.790Z,20.5
2017-10-16T07:07:34.892Z,20.6
2017-10-16T07:08:42.959Z,20.5
2017-10-16T07:09:51.047Z,20.6
2017-10-16T07:10:59.138Z,20.5
2017-10-16T07:12:07.225Z,20.5
2017-10-16T07:13:15.317Z,20.5
2017-10-16T07:14:23.397Z,20.5
2017-10-16T07:15:31.484Z,20.5
2017-10-16T07:16:39.571Z,20.6
2017-10-16T07:17:47.657Z,20.5
2017-10-16T07:18:55.764Z,20.6
2017-10-16T07:20:03.834Z,20.5
2017-10-16T07:21:11.915Z,20.5
2017-10-16T07:22:20.006Z,20.5
2017-10-16T07:23:28.085Z,20.5
2017-10-16T07:24:36.171Z,20.5
2017-10-16T07:25:44.259Z,20.5
2017-10-16T07:26:52.353Z,20.5
2017-10-16T07:28:00.431Z,20.4
2017-10-16T07:29:08.521Z,20.5
2017-10-16T07:30:16.605Z,20.5
2017-10-16T07:31:24.687Z,20.5
2017-10-16T07:32:32.780Z,20.5
2017-10-16T07:33:40.860Z,20.4
2017-10-16T07:34:48.945Z,20.4
2017-10-16T07:35:57.031Z,20.5
2017-10-16T07:37:05.130Z,20.4
2017-10-16T07:38:13.207Z,20.3
2017-10-16T07:39:21.293Z,20.5
2017-10-16T07:40:29.376Z,20.5
2017-10-16T07:41:37.495Z,20.5
2017-10-16T07:42:45.581Z,20.4
2017-10-16T07:43:53.669Z,20.4
2017-10-16T07:45:01.753Z,20.3
2017-10-16T07:46:09.839Z,20.5
2017-10-16T07:47:17.923Z,20.4
2017-10-16T07:48:26.022Z,20.6
2017-10-16T07:49:34.112Z,20.5
2017-10-16T07:50:42.199Z,20.4
2017-10-16T07:51:50.279Z,20.4
2017-10-16T07:52:58.364Z,20.5
2017-10-16T07:54:06.453Z,20.5
2017-10-16T07:55:14.536Z,20.5
2017-10-16T07:56:22.621Z,20.5
2017-10-16T07:57:30.708Z,20.5
2017-10-16T07:58:38.814Z,20.4
2017-10-16T07:59:46.879Z,20.4
2017-10-16T08:00:54.974Z,20.5
2017-10-16T08:02:03.061Z,20.5
2017-10-16T08:03:11.148Z,20.4
2017-10-16T08:04:19.234Z,20.5
2017-10-16T08:05:27.319Z,20.5
2017-10-16T08:06:35.421Z,20.5
2017-10-16T08:07:43.498Z,20.3
2017-10-16T08:08:51.582Z,20.5
2017-10-16T08:09:59.676Z,20.4
2017-10-16T08:11:07.753Z,20.5
2017-10-16T08:12:15.839Z,20.5
2017-10-16T08:13:23.931Z,20.4
2017-10-16T08:14:32.010Z,20.5
2017-10-16T08:15:40.107Z,20.5
2017-10-16T08:16:48.202Z,20.5
2017-10-16T08:17:56.276Z,20.3
2017-10-16T08:19:04.362Z,20.5
2017-10-16T08:20:12.449Z,20.5
2017-10-16T08:21:20.534Z,20.5
2017-10-16T08:22:28.624Z,20.5
2017-10-16T08:23:36.707Z,20.5
2017-10-16T08:24:44.794Z,20.5
2017-10-16T08:25:52.883Z,20.4
2017-10-16T08:27:00.969Z,20.4
2017-10-16T08:28:09.050Z,20.5
2017-10-16T08:29:17.154Z,20.5
2017-10-16T08:30:25.221Z,20.5
2017-10-16T08:31:33.306Z,20.5
2017-10-16T08:32:41.399Z,20.4
2017-10-16T08:33:49.482Z,20.4
2017-10-16T08:34:57.568Z,20.4
2017-10-16T08:36:05.654Z,20.5
2017-10-16T08:37:13.747Z,20.4
2017-10-16T08:38:21.828Z,20.5
2017-10-16T08:39:29.913Z,20.4
2017-10-16T08:40:38.018Z,20.4
2017-10-16T08:41:46.088Z,20.5
2017-10-16T08:42:54.180Z,20.5
2017-10-16T08:44:02.261Z,20.4
2017-10-16T08:45:10.341Z,20.4
2017-10-16T08:46:18.427Z,20.5
2017-10-16T08:47:26.513Z,20.4
2017-10-16T08:48:34.596Z,20.5
2017-10-16T08:49:42.684Z,20.5
2017-10-16T08:50:50.769Z,20.4
2017-10-16T08:51:58.858Z,20.5
2017-10-16T08:53:06.944Z,20.4
2017-10-16T08:54:15.029Z,20.4
2017-10-16T08:55:23.116Z,20.5
2017-10-16T08:56:31.225Z,20.4
2017-10-16T08:57:39.287Z,20.5
2017-10-16T08:58:47.373Z,20.5
2017-10-16T08:59:55.459Z,20.6
2017-10-16T09:01:03.545Z,20.5
2017-10-16T09:02:11.631Z,20.5
2017-10-16T09:03:19.715Z,20.5
2017-10-16T09:04:27.813Z,20.6
2017-10-16T09:05:35.911Z,20.5
2017-10-16T09:06:43.973Z,20.5
2017-10-16T09:07:52.061Z,20.5
2017-10-16T09:09:00.145Z,20.5
2017-10-16T09:10:08.235Z,20.6
2017-10-16T09:11:16.322Z,20.6
2017-10-16T09:12:24.407Z,20.6
2017-10-16T09:13:32.579Z,20.6
2017-10-16T09:14:40.666Z,20.6
2017-10-16T09:15:48.773Z,20.6
2017-10-16T09:16:56.836Z,20.6
2017-10-16T09:18:04.922Z,20.6
2017-10-16T09:19:13.009Z,20.6
2017-10-16T09:20:21.098Z,20.6
2017-10-16T09:21:29.183Z,20.6
2017-10-16T09:22:37.268Z,20.6
2017-10-16T09:23:45.355Z,20.6
2017-10-16T09:24:53.487Z,20.7
2017-10-16T09:26:01.577Z,20.6
2017-10-16T09:27:09.669Z,20.7
2017-10-16T09:28:17.744Z,20.7
2017-10-16T09:29:25.833Z,20.7
2017-10-16T09:30:33.919Z,20.7
2017-10-16T09:31:42.010Z,20.7
2017-10-16T09:32:50.091Z,20.7
2017-10-16T09:33:58.178Z,20.7
2017-10-16T09:35:06.263Z,20.7
2017-10-16T09:36:14.359Z,20.7
2017-10-16T09:37:22.444Z,20.7
2017-10-16T09:38:30.532Z,20.7
2017-10-16T09:39:38.618Z,20.7
2017-10-16T09:40:46.704Z,20.7
2017-10-16T09:41:54.790Z,20.7
2017-10-16T09:43:02.876Z,20.7
2017-10-16T09:44:10.964Z,20.7
2017-10-16T09:45:19.048Z,20.7
2017-10-16T09:46:27.135Z,20.7
2017-10-16T09:47:35.218Z,20.7
2017-10-16T09:48:43.305Z,20.7
2017-10-16T09:49:51.391Z,20.8
2017-10-16T09:50:59.479Z,20.8
2017-10-16T09:52:07.563Z,20.7
2017-10-16T09:53:15.647Z,20.7
2017-10-16T09:54:23.738Z,20.8
2017-10-16T09:55:31.821Z,20.8
2017-10-16T09:56:39.914Z,20.9
2017-10-16T09:57:47.994Z,20.8
2017-10-16T09:58:56.081Z,20.8
2017-10-16T10:00:04.166Z,20.8
2017-10-16T10:01:12.263Z,20.8
2017-10-16T10:02:20.350Z,20.8
2017-10-16T10:03:28.442Z,20.8
2017-10-16T10:04:36.523Z,20.8
2017-10-16T10:05:44.610Z,20.8
2017-10-16T10:06:52.697Z,20.8
2017-10-16T10:08:00.781Z,20.8
2017-10-16T10:09:08.871Z,20.8
2017-10-16T10:10:16.956Z,20.9
2017-10-16T10:11:25.043Z,20.9
2017-10-16T10:12:33.130Z,20.8
2017-10-16T10:13:41.215Z,20.8
2017-10-16T10:14:49.301Z,20.8
2017-10-16T10:15:57.391Z,20.9
2017-10-16T10:17:05.477Z,20.9
2017-10-16T10:18:13.558Z,20.9
2017-10-16T10:19:21.647Z,20.9
2017-10-16T10:20:29.733Z,20.9
2017-10-16T10:21:37.820Z,20.9
2017-10-16T10:22:45.922Z,20.9
2017-10-16T10:23:53.991Z,20.9
2017-10-16T10:25:02.079Z,20.9
2017-10-16T10:26:10.164Z,20.9
2017-10-16T10:27:18.261Z,20.9
2017-10-16T10:28:26.347Z,20.9
2017-10-16T10:29:34.432Z,20.9
2017-10-16T10:30:42.541Z,20.9
2017-10-16T10:31:50.644Z,20.9
2017-10-16T10:32:58.710Z,20.9
2017-10-16T10:34:06.797Z,20.9
2017-10-16T10:35:14.890Z,20.9
2017-10-16T10:36:22.977Z,20.9
2017-10-16T10:37:31.057Z,20.9
2017-10-16T10:38:39.144Z,20.9
2017-10-16T10:39:47.234Z,21.0
2017-10-16T10:40:55.315Z,20.9
2017-10-16T10:42:03.401Z,21.1
2017-10-16T10:43:11.491Z,21.0
2017-10-16T10:44:19.571Z,21.0
2017-10-16T10:45:27.660Z,21.0
2017-10-16T10:46:35.753Z,21.1
2017-10-16T10:47:43.834Z,21.1
2017-10-16T10:48:51.923Z,21.0
2017-10-16T10:50:00.009Z,21.0
2017-10-16T10:51:08.091Z,21.0
2017-10-16T10:52:16.181Z,21.0
2017-10-16T10:53:24.261Z,21.0
2017-10-16T10:54:32.354Z,21.0
2017-10-16T10:55:40.440Z,21.0
2017-10-16T10:56:48.523Z,21.0
2017-10-16T10:57:56.608Z,21.0
2017-10-16T10:59:04.696Z,21.0
2017-10-16T11:00:12.783Z,21.1
2017-10-16T11:01:20.869Z,21.0
2017-10-16T11:02:28.955Z,20.9
2017-10-16T11:03:37.041Z,21.0
2017-10-16T11:04:45.129Z,21.1
2017-10-16T11:05:53.214Z,21.0
2017-10-16T11:07:01.301Z,21.0
2017-10-16T11:08:09.389Z,21.0
2017-10-16T11:09:17.473Z,21.0
2017-10-16T11:10:25.564Z,21.0
2017-10-16T11:11:33.648Z,21.1
2017-10-16T11:12:41.733Z,21.0
2017-10-16T11:13:49.821Z,21.1
2017-10-16T11:14:57.905Z,21.1
2017-10-16T11:16:06.000Z,21.1
2017-10-16T11:17:14.080Z,21.1
2017-10-16T11:18:22.195Z,21.1
2017-10-16T11:19:30.252Z,21.1
2017-10-16T11:20:38.356Z,21.1
2017-10-16T11:21:46.426Z,21.1
2017-10-16T11:22:54.520Z,21.0
2017-10-16T11:24:02.596Z,21.1
2017-10-16T11:25:10.683Z,21.1
2017-10-16T11:26:18.769Z,21.1
2017-10-16T11:27:26.864Z,21.0
2017-10-16T11:28:34.945Z,21.1
2017-10-16T11:29:43.031Z,21.1
2017-10-16T11:30:51.116Z,21.1
2017-10-16T11:31:59.202Z,21.0
2017-10-16T11:33:07.289Z,21.0
2017-10-16T11:34:15.377Z,21.1
2017-10-16T11:35:23.463Z,21.0
2017-10-16T11:36:31.548Z,21.1
2017-10-16T11:37:39.634Z,21.1
2017-10-16T11:38:47.778Z,21.0
2017-10-16T11:39:55.809Z,21.1
2017-10-16T11:41:03.895Z,21.1
2017-10-16T11:42:11.980Z,21.1
2017-10-16T11:43:20.070Z,21.1
2017-10-16T11:44:28.156Z,21.2
2017-10-16T11:45:36.242Z,21.2
2017-10-16T11:46:44.329Z,21.1
2017-10-16T11:47:52.441Z,21.0
2017-10-16T11:49:00.530Z,21.1
2017-10-16T11:50:08.616Z,21.1
2017-10-16T11:51:16.704Z,21.1
2017-10-16T11:52:24.790Z,21.1
2017-10-16T11:53:32.909Z,21.1
2017-10-16T11:54:40.974Z,21.2
2017-10-16T11:55:49.059Z,21.1
2017-10-16T11:56:57.146Z,21.1
2017-10-16T11:58:05.231Z,21.1
2017-10-16T11:59:13.319Z,21.1
2017-10-16T12:00:21.405Z,21.1
2017-10-16T12:01:29.493Z,21.1
2017-10-16T12:02:37.580Z,21.1
2017-10-16T12:03:45.675Z,21.1
2017-10-16T12:04:53.760Z,21.1
2017-10-16T12:06:01.847Z,21.1
2017-10-16T12:07:09.931Z,21.1
2017-10-16T12:08:18.019Z,21.2
2017-10-16T12:09:26.116Z,21.1
2017-10-16T12:10:34.212Z,21.0
2017-10-16T12:11:42.300Z,21.1
2017-10-16T12:12:50.388Z,21.2
2017-10-16T12:13:58.473Z,21.2
2017-10-16T12:15:06.559Z,21.1
2017-10-16T12:16:14.644Z,21.2
2017-10-16T12:17:22.733Z,21.1
2017-10-16T12:18:30.818Z,21.2
2017-10-16T12:19:38.910Z,21.1
2017-10-16T12:20:46.992Z,21.2
2017-10-16T12:21:55.096Z,21.2
2017-10-16T12:23:03.170Z,21.2
2017-10-16T12:24:11.262Z,21.1
2017-10-16T12:25:19.367Z,21.2
2017-10-16T12:26:27.423Z,21.1
2017-10-16T12:27:35.509Z,21.1
2017-10-16T12:28:43.596Z,21.2
2017-10-16T12:29:51.683Z,21.1
2017-10-16T12:30:59.780Z,21.3
2017-10-16T12:32:07.856Z,21.2
2017-10-16T12:33:15.964Z,21.1
2017-10-16T12:34:24.032Z,21.2
2017-10-16T12:35:32.116Z,21.2
2017-10-16T12:36:40.202Z,21.2
2017-10-16T12:37:48.289Z,21.2
2017-10-16T12:38:56.375Z,21.2
2017-10-16T12:40:04.462Z,21.2
2017-10-16T12:41:12.547Z,21.1
2017-10-16T12:42:20.643Z,21.2
2017-10-16T12:43:28.738Z,21.2
2017-10-16T12:44:36.815Z,21.2
2017-10-16T12:45:44.905Z,21.2
2017-10-16T12:46:52.990Z,21.1
2017-10-16T12:48:01.078Z,21.1
2017-10-16T12:49:09.163Z,21.1
2017-10-16T12:50:17.251Z,21.2
2017-10-16T12:51:25.358Z,21.2
2017-10-16T12:52:33.422Z,21.1
2017-10-16T12:53:41.507Z,21.2
2017-10-16T12:54:49.592Z,21.2
2017-10-16T12:55:57.681Z,21.1
2017-10-16T12:57:05.769Z,21.2
2017-10-16T12:58:13.876Z,21.1
2017-10-16T12:59:21.946Z,21.1
2017-10-16T13:00:30.031Z,21.2
2017-10-16T13:01:38.116Z,21.2
2017-10-16T13:02:46.205Z,21.2
2017-10-16T13:03:54.291Z,21.2
2017-10-16T13:05:02.375Z,21.2
2017-10-16T13:06:10.467Z,21.2
2017-10-16T13:07:18.547Z,21.1
2017-10-16T13:08:26.640Z,21.1
2017-10-16T13:09:34.721Z,21.2
2017-10-16T13:10:42.806Z,21.3
2017-10-16T13:11:50.893Z,21.2
2017-10-16T13:12:58.978Z,21.1
2017-10-16T13:14:07.064Z,21.2
2017-10-16T13:15:15.151Z,21.1
2017-10-16T13:16:23.238Z,21.1
2017-10-16T13:17:31.325Z,21.1
2017-10-16T13:18:39.410Z,21.1
2017-10-16T13:19:47.504Z,21.1
2017-10-16T13:20:55.593Z,21.2
2017-10-16T13:22:03.669Z,21.1
2017-10-16T13:23:11.752Z,21.2
2017-10-16T13:24:19.840Z,21.2
2017-10-16T13:25:27.929Z,21.1
2017-10-16T13:26:36.015Z,21.1
2017-10-16T13:27:44.101Z,21.1
2017-10-16T13:28:52.192Z,21.2
2017-10-16T13:30:00.283Z,21.1
2017-10-16T13:31:08.378Z,21.2
2017-10-16T13:32:16.445Z,21.2
2017-10-16T13:33:24.530Z,21.2
2017-10-16T13:34:32.624Z,21.2
2017-10-16T13:35:40.705Z,21.2
2017-10-16T13:36:48.791Z,21.2
2017-10-16T13:37:56.880Z,21.2
2017-10-16T13:39:04.973Z,21.2
2017-10-16T13:40:13.054Z,21.2
2017-10-16T13:41:21.141Z,21.3
2017-10-16T13:42:29.224Z,21.2
2017-10-16T13:43:37.313Z,21.3
2017-10-16T13:44:45.398Z,21.2
2017-10-16T13:45:53.484Z,21.3
2017-10-16T13:47:01.571Z,21.2
2017-10-16T13:48:09.658Z,21.3
2017-10-16T13:49:17.745Z,21.3
2017-10-16T13:50:25.836Z,21.3
2017-10-16T13:51:33.917Z,21.2
2017-10-16T13:52:42.005Z,21.3
2017-10-16T13:53:50.090Z,21.2
2017-10-16T13:54:58.181Z,21.2
2017-10-16T13:56:06.260Z,21.3
2017-10-16T13:57:14.350Z,21.2
2017-10-16T13:58:22.437Z,21.3
2017-10-16T13:59:30.523Z,21.3
2017-10-16T14:00:38.608Z,21.2
2017-10-16T14:01:46.693Z,21.3
2017-10-16T14:02:54.780Z,21.3
2017-10-16T14:04:02.865Z,21.3
2017-10-16T14:05:10.951Z,21.3
2017-10-16T14:06:19.039Z,21.3
2017-10-16T14:07:27.125Z,21.3
2017-10-16T14:08:35.211Z,21.3
2017-10-16T14:09:43.298Z,21.4
2017-10-16T14:10:51.384Z,21.3
2017-10-16T14:11:59.471Z,21.4
2017-10-16T14:13:07.556Z,21.3
2017-10-16T14:14:15.643Z,21.3
2017-10-16T14:15:23.735Z,21.4
2017-10-16T14:16:31.818Z,21.4
2017-10-16T14:17:39.903Z,21.3
2017-10-16T14:18:47.993Z,21.3
2017-10-16T14:19:56.079Z,21.3
2017-10-16T14:21:04.187Z,21.4
2017-10-16T14:22:12.248Z,21.4
2017-10-16T14:23:20.336Z,21.4
2017-10-16T14:24:28.426Z,21.4
2017-10-16T14:25:36.505Z,21.4
2017-10-16T14:26:44.595Z,21.4
2017-10-16T14:27:52.681Z,21.4
2017-10-16T14:29:00.770Z,21.3
2017-10-16T14:30:08.856Z,21.4
2017-10-16T14:31:16.955Z,21.4
2017-10-16T14:32:25.051Z,21.4
2017-10-16T14:33:33.147Z,21.4
2017-10-16T14:34:41.234Z,21.3
2017-10-16T14:35:49.321Z,21.4
2017-10-16T14:36:57.419Z,21.4
2017-10-16T14:38:05.513Z,21.4
2017-10-16T14:39:13.685Z,21.5
2017-10-16T14:40:21.684Z,21.5
2017-10-16T14:41:29.773Z,21.4
2017-10-16T14:42:37.860Z,21.4
2017-10-16T14:43:45.947Z,21.4
2017-10-16T14:44:54.035Z,21.4
2017-10-16T14:46:02.125Z,21.4
2017-10-16T14:47:10.220Z,21.4
2017-10-16T14:48:18.299Z,21.4
2017-10-16T14:49:26.387Z,21.5
2017-10-16T14:50:34.471Z,21.5
2017-10-16T14:51:42.558Z,21.5
2017-10-16T14:52:50.647Z,21.5
2017-10-16T14:53:58.734Z,21.5
2017-10-16T14:55:06.821Z,21.5
2017-10-16T14:56:14.907Z,21.5
2017-10-16T14:57:22.992Z,21.5
2017-10-16T14:58:31.080Z,21.5
2017-10-16T14:59:39.165Z,21.5
2017-10-16T15:00:47.251Z,21.5
2017-10-16T15:01:55.337Z,21.4
2017-10-16T15:03:03.433Z,21.4
2017-10-16T15:04:11.513Z,21.5
2017-10-16T15:05:19.600Z,21.4
2017-10-16T15:06:27.684Z,21.4